sensor_id;sensor_type;location;lat;lon;timestamp;temperature;humidity
27667;DHT22;15074;50.940;5.282;2023-09-19T00:02:16;15.30;99.90
27667;DHT22;15074;50.940;5.282;2023-09-19T00:04:43;15.30;99.90
27667;DHT22;15074;50.940;5.282;2023-09-19T00:07:08;15.30;99.90
27667;DHT22;15074;50.940;5.282;2023-09-19T00:09:34;15.30;99.90
27667;DHT22;15074;50.940;5.282;2023-09-19T00:12:04;15.20;99.90
27667;DHT22;15074;50.940;5.282;2023-09-19T00:14:30;15.10;99.90
27667;DHT22;15074;50.940;5.282;2023-09-19T00:16:58;15.20;99.90
27667;DHT22;15074;50.940;5.282;2023-09-19T00:19:26;15.20;99.90
27667;DHT22;15074;50.940;5.282;2023-09-19T00:21:51;15.20;99.90
27667;DHT22;15074;50.940;5.282;2023-09-19T00:24:18;15.20;99.90
27667;DHT22;15074;50.940;5.282;2023-09-19T00:26:44;15.10;99.90
27667;DHT22;15074;50.940;5.282;2023-09-19T00:29:12;15.10;99.90
27667;DHT22;15074;50.940;5.282;2023-09-19T00:31:43;15.10;99.90
27667;DHT22;15074;50.940;5.282;2023-09-19T00:34:09;15.10;99.90
27667;DHT22;15074;50.940;5.282;2023-09-19T00:36:39;15.20;99.90
27667;DHT22;15074;50.940;5.282;2023-09-19T00:39:05;15.20;99.90
27667;DHT22;15074;50.940;5.282;2023-09-19T00:41:34;15.20;99.90
27667;DHT22;15074;50.940;5.282;2023-09-19T00:44:03;15.30;99.90
27667;DHT22;15074;50.940;5.282;2023-09-19T00:46:32;15.20;99.90
27667;DHT22;15074;50.940;5.282;2023-09-19T00:48:58;15.30;99.90
27667;DHT22;15074;50.940;5.282;2023-09-19T00:51:25;15.30;99.90
27667;DHT22;15074;50.940;5.282;2023-09-19T00:53:52;15.30;99.90
27667;DHT22;15074;50.940;5.282;2023-09-19T00:56:18;15.20;99.90
27667;DHT22;15074;50.940;5.282;2023-09-19T00:58:47;15.20;99.90
27667;DHT22;15074;50.940;5.282;2023-09-19T01:01:13;15.10;99.90
27667;DHT22;15074;50.940;5.282;2023-09-19T01:03:41;15.10;99.90
27667;DHT22;15074;50.940;5.282;2023-09-19T01:06:07;15.10;99.90
27667;DHT22;15074;50.940;5.282;2023-09-19T01:08:34;15.10;99.90
27667;DHT22;15074;50.940;5.282;2023-09-19T01:11:13;15.10;99.90
27667;DHT22;15074;50.940;5.282;2023-09-19T01:13:47;15.10;99.90
27667;DHT22;15074;50.940;5.282;2023-09-19T01:16:48;15.00;99.90
27667;DHT22;15074;50.940;5.282;2023-09-19T01:30:14;15.00;99.90
27667;DHT22;15074;50.940;5.282;2023-09-19T01:32:39;14.90;99.90
27667;DHT22;15074;50.940;5.282;2023-09-19T01:35:07;14.90;99.90
27667;DHT22;15074;50.940;5.282;2023-09-19T01:37:37;14.90;99.90
27667;DHT22;15074;50.940;5.282;2023-09-19T01:40:08;14.90;99.90
27667;DHT22;15074;50.940;5.282;2023-09-19T01:42:55;14.90;99.90
27667;DHT22;15074;50.940;5.282;2023-09-19T01:45:40;14.90;99.90
27667;DHT22;15074;50.940;5.282;2023-09-19T01:48:30;14.80;99.90
27667;DHT22;15074;50.940;5.282;2023-09-19T01:51:07;14.80;99.90
27667;DHT22;15074;50.940;5.282;2023-09-19T01:53:59;14.80;99.90
27667;DHT22;15074;50.940;5.282;2023-09-19T01:59:37;14.70;99.90
27667;DHT22;15074;50.940;5.282;2023-09-19T02:02:07;14.70;99.90
27667;DHT22;15074;50.940;5.282;2023-09-19T02:04:34;14.70;99.90
27667;DHT22;15074;50.940;5.282;2023-09-19T02:07:00;14.60;99.90
27667;DHT22;15074;50.940;5.282;2023-09-19T02:09:26;14.60;99.90
27667;DHT22;15074;50.940;5.282;2023-09-19T02:11:52;14.60;99.90
27667;DHT22;15074;50.940;5.282;2023-09-19T02:14:18;14.70;99.90
27667;DHT22;15074;50.940;5.282;2023-09-19T02:16:45;14.60;99.90
27667;DHT22;15074;50.940;5.282;2023-09-19T02:19:11;14.60;99.90
27667;DHT22;15074;50.940;5.282;2023-09-19T02:21:36;14.50;99.90
27667;DHT22;15074;50.940;5.282;2023-09-19T02:24:03;14.50;99.90
27667;DHT22;15074;50.940;5.282;2023-09-19T02:26:29;14.50;99.90
27667;DHT22;15074;50.940;5.282;2023-09-19T02:28:54;14.50;99.90
27667;DHT22;15074;50.940;5.282;2023-09-19T02:31:20;14.40;99.90
27667;DHT22;15074;50.940;5.282;2023-09-19T02:33:46;14.50;99.90
27667;DHT22;15074;50.940;5.282;2023-09-19T02:36:12;14.40;99.90
27667;DHT22;15074;50.940;5.282;2023-09-19T02:38:42;14.50;99.90
27667;DHT22;15074;50.940;5.282;2023-09-19T02:41:08;14.50;99.90
27667;DHT22;15074;50.940;5.282;2023-09-19T02:43:33;14.50;99.90
27667;DHT22;15074;50.940;5.282;2023-09-19T02:45:59;14.40;99.90
27667;DHT22;15074;50.940;5.282;2023-09-19T02:48:25;14.50;99.90
27667;DHT22;15074;50.940;5.282;2023-09-19T02:50:51;14.40;99.90
27667;DHT22;15074;50.940;5.282;2023-09-19T02:53:17;14.40;99.90
27667;DHT22;15074;50.940;5.282;2023-09-19T02:55:42;14.40;99.90
27667;DHT22;15074;50.940;5.282;2023-09-19T02:58:08;14.30;99.90
27667;DHT22;15074;50.940;5.282;2023-09-19T03:00:36;14.30;99.90
27667;DHT22;15074;50.940;5.282;2023-09-19T03:03:02;14.30;99.90
27667;DHT22;15074;50.940;5.282;2023-09-19T03:05:28;14.30;99.90
27667;DHT22;15074;50.940;5.282;2023-09-19T03:07:56;14.40;99.90
27667;DHT22;15074;50.940;5.282;2023-09-19T03:10:23;14.40;99.90
27667;DHT22;15074;50.940;5.282;2023-09-19T03:12:50;14.30;99.90
27667;DHT22;15074;50.940;5.282;2023-09-19T03:15:16;14.40;99.90
27667;DHT22;15074;50.940;5.282;2023-09-19T03:17:44;14.40;99.90
27667;DHT22;15074;50.940;5.282;2023-09-19T03:20:10;14.30;99.90
27667;DHT22;15074;50.940;5.282;2023-09-19T03:22:38;14.40;99.90
27667;DHT22;15074;50.940;5.282;2023-09-19T03:25:05;14.40;99.90
27667;DHT22;15074;50.940;5.282;2023-09-19T03:27:36;14.40;99.90
27667;DHT22;15074;50.940;5.282;2023-09-19T03:30:03;14.30;99.90
27667;DHT22;15074;50.940;5.282;2023-09-19T03:32:33;14.40;99.90
27667;DHT22;15074;50.940;5.282;2023-09-19T03:35:00;14.40;99.90
27667;DHT22;15074;50.940;5.282;2023-09-19T03:37:25;14.40;99.90
27667;DHT22;15074;50.940;5.282;2023-09-19T03:39:51;14.40;99.90
27667;DHT22;15074;50.940;5.282;2023-09-19T03:42:17;14.40;99.90
27667;DHT22;15074;50.940;5.282;2023-09-19T03:44:43;14.50;99.90
27667;DHT22;15074;50.940;5.282;2023-09-19T03:47:08;14.50;99.90
27667;DHT22;15074;50.940;5.282;2023-09-19T03:49:34;14.50;99.90
27667;DHT22;15074;50.940;5.282;2023-09-19T03:51:59;14.50;99.90
27667;DHT22;15074;50.940;5.282;2023-09-19T03:54:25;14.50;99.90
27667;DHT22;15074;50.940;5.282;2023-09-19T03:56:51;14.50;99.90
27667;DHT22;15074;50.940;5.282;2023-09-19T03:59:16;14.50;99.90
27667;DHT22;15074;50.940;5.282;2023-09-19T04:01:43;14.40;99.90
27667;DHT22;15074;50.940;5.282;2023-09-19T04:04:09;14.40;99.90
27667;DHT22;15074;50.940;5.282;2023-09-19T04:06:35;14.50;99.90
27667;DHT22;15074;50.940;5.282;2023-09-19T04:09:04;14.60;99.90
27667;DHT22;15074;50.940;5.282;2023-09-19T04:11:32;14.60;99.90
27667;DHT22;15074;50.940;5.282;2023-09-19T04:13:58;14.60;99.90
27667;DHT22;15074;50.940;5.282;2023-09-19T04:16:24;14.70;99.90
27667;DHT22;15074;50.940;5.282;2023-09-19T04:18:50;14.60;99.90
27667;DHT22;15074;50.940;5.282;2023-09-19T04:21:15;14.70;99.90
27667;DHT22;15074;50.940;5.282;2023-09-19T04:23:42;14.60;99.90
27667;DHT22;15074;50.940;5.282;2023-09-19T04:26:08;14.60;99.90
27667;DHT22;15074;50.940;5.282;2023-09-19T04:28:34;14.60;99.90
27667;DHT22;15074;50.940;5.282;2023-09-19T04:31:01;14.70;99.90
27667;DHT22;15074;50.940;5.282;2023-09-19T04:33:27;14.70;99.90
27667;DHT22;15074;50.940;5.282;2023-09-19T04:35:53;14.70;99.90
27667;DHT22;15074;50.940;5.282;2023-09-19T04:38:19;14.80;99.90
27667;DHT22;15074;50.940;5.282;2023-09-19T04:40:45;14.80;99.90
27667;DHT22;15074;50.940;5.282;2023-09-19T04:43:11;14.80;99.90
27667;DHT22;15074;50.940;5.282;2023-09-19T04:45:38;14.80;99.90
27667;DHT22;15074;50.940;5.282;2023-09-19T04:48:04;14.60;99.90
27667;DHT22;15074;50.940;5.282;2023-09-19T04:50:32;14.50;99.90
27667;DHT22;15074;50.940;5.282;2023-09-19T04:52:58;14.50;99.90
27667;DHT22;15074;50.940;5.282;2023-09-19T04:55:24;14.40;99.90
27667;DHT22;15074;50.940;5.282;2023-09-19T04:57:50;14.40;99.90
27667;DHT22;15074;50.940;5.282;2023-09-19T05:00:17;14.30;99.90
27667;DHT22;15074;50.940;5.282;2023-09-19T05:02:44;14.30;99.90
27667;DHT22;15074;50.940;5.282;2023-09-19T05:05:10;14.20;99.90
27667;DHT22;15074;50.940;5.282;2023-09-19T05:07:37;14.20;99.90
27667;DHT22;15074;50.940;5.282;2023-09-19T05:10:04;14.20;99.90
27667;DHT22;15074;50.940;5.282;2023-09-19T05:12:33;14.30;99.90
27667;DHT22;15074;50.940;5.282;2023-09-19T05:15:00;14.30;99.90
27667;DHT22;15074;50.940;5.282;2023-09-19T05:17:27;14.30;99.90
27667;DHT22;15074;50.940;5.282;2023-09-19T05:19:52;14.30;99.90
27667;DHT22;15074;50.940;5.282;2023-09-19T05:22:18;14.30;99.90
27667;DHT22;15074;50.940;5.282;2023-09-19T05:24:44;14.30;99.90
27667;DHT22;15074;50.940;5.282;2023-09-19T05:27:16;14.30;99.90
27667;DHT22;15074;50.940;5.282;2023-09-19T05:29:45;14.20;99.90
27667;DHT22;15074;50.940;5.282;2023-09-19T05:32:11;14.20;99.90
27667;DHT22;15074;50.940;5.282;2023-09-19T05:34:37;14.20;99.90
27667;DHT22;15074;50.940;5.282;2023-09-19T05:37:04;14.10;99.90
27667;DHT22;15074;50.940;5.282;2023-09-19T05:39:30;14.10;99.90
27667;DHT22;15074;50.940;5.282;2023-09-19T05:41:57;14.10;99.90
27667;DHT22;15074;50.940;5.282;2023-09-19T05:44:22;14.20;99.90
27667;DHT22;15074;50.940;5.282;2023-09-19T05:46:48;14.20;99.90
27667;DHT22;15074;50.940;5.282;2023-09-19T05:49:15;14.20;99.90
27667;DHT22;15074;50.940;5.282;2023-09-19T05:51:41;14.20;99.90
27667;DHT22;15074;50.940;5.282;2023-09-19T05:54:06;14.20;99.90
27667;DHT22;15074;50.940;5.282;2023-09-19T05:56:32;14.20;99.90
27667;DHT22;15074;50.940;5.282;2023-09-19T05:58:58;14.20;99.90
27667;DHT22;15074;50.940;5.282;2023-09-19T06:01:25;14.30;99.90
27667;DHT22;15074;50.940;5.282;2023-09-19T06:03:50;14.30;99.90
27667;DHT22;15074;50.940;5.282;2023-09-19T06:06:16;14.40;99.90
27667;DHT22;15074;50.940;5.282;2023-09-19T06:08:42;14.50;99.90
27667;DHT22;15074;50.940;5.282;2023-09-19T06:11:10;14.50;99.90
27667;DHT22;15074;50.940;5.282;2023-09-19T06:13:36;14.60;99.90
27667;DHT22;15074;50.940;5.282;2023-09-19T06:16:05;14.60;99.90
27667;DHT22;15074;50.940;5.282;2023-09-19T06:18:31;14.70;99.90
27667;DHT22;15074;50.940;5.282;2023-09-19T06:20:59;14.70;99.90
27667;DHT22;15074;50.940;5.282;2023-09-19T06:23:25;14.70;99.90
27667;DHT22;15074;50.940;5.282;2023-09-19T06:25:52;14.70;99.90
27667;DHT22;15074;50.940;5.282;2023-09-19T06:28:21;14.70;99.90
27667;DHT22;15074;50.940;5.282;2023-09-19T06:30:51;14.80;99.90
27667;DHT22;15074;50.940;5.282;2023-09-19T06:33:16;14.90;99.90
27667;DHT22;15074;50.940;5.282;2023-09-19T06:35:43;15.00;99.90
27667;DHT22;15074;50.940;5.282;2023-09-19T06:38:10;14.90;99.90
27667;DHT22;15074;50.940;5.282;2023-09-19T06:40:38;15.00;99.90
27667;DHT22;15074;50.940;5.282;2023-09-19T06:43:05;15.00;99.90
27667;DHT22;15074;50.940;5.282;2023-09-19T06:45:30;15.10;99.90
27667;DHT22;15074;50.940;5.282;2023-09-19T06:47:57;15.20;99.90
27667;DHT22;15074;50.940;5.282;2023-09-19T06:50:25;15.30;99.90
27667;DHT22;15074;50.940;5.282;2023-09-19T06:52:53;15.40;99.90
27667;DHT22;15074;50.940;5.282;2023-09-19T06:55:20;15.70;99.90
27667;DHT22;15074;50.940;5.282;2023-09-19T06:57:47;16.10;99.90
27667;DHT22;15074;50.940;5.282;2023-09-19T07:00:13;16.30;99.90
27667;DHT22;15074;50.940;5.282;2023-09-19T07:03:00;16.30;99.90
27667;DHT22;15074;50.940;5.282;2023-09-19T07:05:30;16.20;99.90
27667;DHT22;15074;50.940;5.282;2023-09-19T07:08:00;16.50;99.90
27667;DHT22;15074;50.940;5.282;2023-09-19T07:10:26;17.10;99.90
27667;DHT22;15074;50.940;5.282;2023-09-19T07:12:59;17.80;99.90
27667;DHT22;15074;50.940;5.282;2023-09-19T07:15:26;17.90;99.90
27667;DHT22;15074;50.940;5.282;2023-09-19T07:17:53;17.70;99.90
27667;DHT22;15074;50.940;5.282;2023-09-19T07:20:20;17.50;99.90
27667;DHT22;15074;50.940;5.282;2023-09-19T07:22:45;16.90;99.90
27667;DHT22;15074;50.940;5.282;2023-09-19T07:25:13;16.80;99.90
27667;DHT22;15074;50.940;5.282;2023-09-19T07:27:41;16.90;99.90
27667;DHT22;15074;50.940;5.282;2023-09-19T07:30:08;17.00;99.90
27667;DHT22;15074;50.940;5.282;2023-09-19T07:32:34;17.20;99.90
27667;DHT22;15074;50.940;5.282;2023-09-19T07:35:04;17.50;99.90
27667;DHT22;15074;50.940;5.282;2023-09-19T07:37:31;17.60;99.90
27667;DHT22;15074;50.940;5.282;2023-09-19T07:39:59;17.70;99.90
27667;DHT22;15074;50.940;5.282;2023-09-19T07:42:26;17.70;99.90
27667;DHT22;15074;50.940;5.282;2023-09-19T07:44:52;17.80;99.90
27667;DHT22;15074;50.940;5.282;2023-09-19T07:47:19;17.90;99.90
27667;DHT22;15074;50.940;5.282;2023-09-19T07:49:47;17.90;99.90
27667;DHT22;15074;50.940;5.282;2023-09-19T07:52:13;17.80;99.90
27667;DHT22;15074;50.940;5.282;2023-09-19T07:54:39;18.00;99.90
27667;DHT22;15074;50.940;5.282;2023-09-19T07:57:07;18.50;99.90
27667;DHT22;15074;50.940;5.282;2023-09-19T07:59:32;18.90;99.90
27667;DHT22;15074;50.940;5.282;2023-09-19T08:01:58;19.10;99.90
27667;DHT22;15074;50.940;5.282;2023-09-19T08:04:24;19.20;99.90
27667;DHT22;15074;50.940;5.282;2023-09-19T08:06:51;19.60;99.90
27667;DHT22;15074;50.940;5.282;2023-09-19T08:09:17;19.80;99.90
27667;DHT22;15074;50.940;5.282;2023-09-19T08:11:47;19.80;99.90
27667;DHT22;15074;50.940;5.282;2023-09-19T08:14:13;19.60;99.90
27667;DHT22;15074;50.940;5.282;2023-09-19T08:16:40;19.40;99.90
27667;DHT22;15074;50.940;5.282;2023-09-19T08:19:05;19.40;99.90
27667;DHT22;15074;50.940;5.282;2023-09-19T08:21:31;19.40;99.90
27667;DHT22;15074;50.940;5.282;2023-09-19T08:23:57;19.50;99.90
27667;DHT22;15074;50.940;5.282;2023-09-19T08:26:23;19.30;99.90
27667;DHT22;15074;50.940;5.282;2023-09-19T08:28:50;19.40;99.90
27667;DHT22;15074;50.940;5.282;2023-09-19T08:31:17;19.50;99.90
27667;DHT22;15074;50.940;5.282;2023-09-19T08:33:43;19.70;99.90
27667;DHT22;15074;50.940;5.282;2023-09-19T08:36:10;19.50;99.90
27667;DHT22;15074;50.940;5.282;2023-09-19T08:38:39;19.90;99.90
27667;DHT22;15074;50.940;5.282;2023-09-19T08:41:06;20.30;99.90
27667;DHT22;15074;50.940;5.282;2023-09-19T08:43:33;20.40;99.90
27667;DHT22;15074;50.940;5.282;2023-09-19T08:46:20;20.50;99.90
27667;DHT22;15074;50.940;5.282;2023-09-19T08:49:03;20.10;99.90
27667;DHT22;15074;50.940;5.282;2023-09-19T08:51:44;19.70;99.90
27667;DHT22;15074;50.940;5.282;2023-09-19T08:54:25;20.00;99.90
27667;DHT22;15074;50.940;5.282;2023-09-19T08:56:54;20.20;99.90
27667;DHT22;15074;50.940;5.282;2023-09-19T08:59:23;19.90;99.90
27667;DHT22;15074;50.940;5.282;2023-09-19T09:01:56;20.00;99.90
27667;DHT22;15074;50.940;5.282;2023-09-19T09:04:22;20.30;99.90
27667;DHT22;15074;50.940;5.282;2023-09-19T09:06:49;20.60;99.90
27667;DHT22;15074;50.940;5.282;2023-09-19T09:09:19;20.70;99.90
27667;DHT22;15074;50.940;5.282;2023-09-19T09:11:45;20.10;99.90
27667;DHT22;15074;50.940;5.282;2023-09-19T09:14:14;20.40;99.90
27667;DHT22;15074;50.940;5.282;2023-09-19T09:16:39;20.40;99.90
27667;DHT22;15074;50.940;5.282;2023-09-19T09:19:05;20.70;99.90
27667;DHT22;15074;50.940;5.282;2023-09-19T09:21:31;20.80;99.90
27667;DHT22;15074;50.940;5.282;2023-09-19T09:24:27;20.90;99.90
27667;DHT22;15074;50.940;5.282;2023-09-19T09:26:55;20.70;99.90
27667;DHT22;15074;50.940;5.282;2023-09-19T09:29:50;20.90;99.90
27667;DHT22;15074;50.940;5.282;2023-09-19T09:34:56;21.30;99.90
27667;DHT22;15074;50.940;5.282;2023-09-19T09:37:23;21.70;99.90
27667;DHT22;15074;50.940;5.282;2023-09-19T09:39:52;21.80;99.90
27667;DHT22;15074;50.940;5.282;2023-09-19T09:42:38;21.60;99.90
27667;DHT22;15074;50.940;5.282;2023-09-19T09:45:20;21.70;99.90
27667;DHT22;15074;50.940;5.282;2023-09-19T09:47:58;21.20;99.90
27667;DHT22;15074;50.940;5.282;2023-09-19T09:52:55;20.80;99.90
27667;DHT22;15074;50.940;5.282;2023-09-19T09:58:27;20.50;99.90
27667;DHT22;15074;50.940;5.282;2023-09-19T10:00:56;20.50;99.90
27667;DHT22;15074;50.940;5.282;2023-09-19T10:03:38;20.50;99.90
27667;DHT22;15074;50.940;5.282;2023-09-19T10:06:11;21.00;99.90
27667;DHT22;15074;50.940;5.282;2023-09-19T10:09:05;20.70;99.90
27667;DHT22;15074;50.940;5.282;2023-09-19T10:11:47;20.00;99.90
27667;DHT22;15074;50.940;5.282;2023-09-19T10:14:27;20.40;99.90
27667;DHT22;15074;50.940;5.282;2023-09-19T10:16:56;20.80;99.90
27667;DHT22;15074;50.940;5.282;2023-09-19T10:22:16;20.90;99.90
27667;DHT22;15074;50.940;5.282;2023-09-19T10:24:49;20.70;99.90
27667;DHT22;15074;50.940;5.282;2023-09-19T10:27:19;20.70;99.90
27667;DHT22;15074;50.940;5.282;2023-09-19T10:29:49;21.00;99.90
27667;DHT22;15074;50.940;5.282;2023-09-19T10:32:22;20.90;99.90
27667;DHT22;15074;50.940;5.282;2023-09-19T10:34:49;20.90;99.90
27667;DHT22;15074;50.940;5.282;2023-09-19T10:37:16;21.10;99.90
27667;DHT22;15074;50.940;5.282;2023-09-19T10:39:46;21.20;99.90
27667;DHT22;15074;50.940;5.282;2023-09-19T10:42:19;21.80;99.90
27667;DHT22;15074;50.940;5.282;2023-09-19T10:44:47;22.20;99.90
27667;DHT22;15074;50.940;5.282;2023-09-19T10:47:19;22.60;99.90
27667;DHT22;15074;50.940;5.282;2023-09-19T10:49:46;23.50;99.90
27667;DHT22;15074;50.940;5.282;2023-09-19T10:52:17;23.70;99.90
27667;DHT22;15074;50.940;5.282;2023-09-19T10:54:50;23.60;99.90
27667;DHT22;15074;50.940;5.282;2023-09-19T10:57:21;24.00;99.90
27667;DHT22;15074;50.940;5.282;2023-09-19T11:00:08;23.50;99.90
27667;DHT22;15074;50.940;5.282;2023-09-19T11:03:27;23.20;99.90
27667;DHT22;15074;50.940;5.282;2023-09-19T11:06:02;22.80;99.90
27667;DHT22;15074;50.940;5.282;2023-09-19T11:09:04;22.90;99.90
27667;DHT22;15074;50.940;5.282;2023-09-19T11:11:39;22.50;99.90
27667;DHT22;15074;50.940;5.282;2023-09-19T11:30:31;23.30;99.90
27667;DHT22;15074;50.940;5.282;2023-09-19T11:33:27;23.20;99.90
27667;DHT22;15074;50.940;5.282;2023-09-19T11:36:10;23.70;99.90
27667;DHT22;15074;50.940;5.282;2023-09-19T11:44:31;22.90;99.90
27667;DHT22;15074;50.940;5.282;2023-09-19T11:49:19;23.50;99.90
27667;DHT22;15074;50.940;5.282;2023-09-19T11:51:51;23.60;99.90
27667;DHT22;15074;50.940;5.282;2023-09-19T11:54:19;24.00;99.90
27667;DHT22;15074;50.940;5.282;2023-09-19T11:56:53;24.10;99.90
27667;DHT22;15074;50.940;5.282;2023-09-19T11:59:27;24.40;99.90
27667;DHT22;15074;50.940;5.282;2023-09-19T12:02:05;24.50;99.90
27667;DHT22;15074;50.940;5.282;2023-09-19T12:04:42;24.50;99.90
27667;DHT22;15074;50.940;5.282;2023-09-19T12:09:48;24.10;99.90
27667;DHT22;15074;50.940;5.282;2023-09-19T12:12:23;23.60;99.90
27667;DHT22;15074;50.940;5.282;2023-09-19T12:14:49;23.10;99.90
27667;DHT22;15074;50.940;5.282;2023-09-19T12:17:16;22.50;99.90
27667;DHT22;15074;50.940;5.282;2023-09-19T12:19:53;22.50;99.90
27667;DHT22;15074;50.940;5.282;2023-09-19T12:22:19;22.50;99.90
27667;DHT22;15074;50.940;5.282;2023-09-19T12:24:46;21.40;99.90
27667;DHT22;15074;50.940;5.282;2023-09-19T12:27:13;21.50;99.90
27667;DHT22;15074;50.940;5.282;2023-09-19T12:29:57;22.00;99.90
27667;DHT22;15074;50.940;5.282;2023-09-19T12:32:35;22.30;99.90
27667;DHT22;15074;50.940;5.282;2023-09-19T12:35:01;22.20;99.90
27667;DHT22;15074;50.940;5.282;2023-09-19T12:37:33;22.00;99.90
27667;DHT22;15074;50.940;5.282;2023-09-19T12:40:08;22.10;99.90
27667;DHT22;15074;50.940;5.282;2023-09-19T12:42:45;22.20;99.90
27667;DHT22;15074;50.940;5.282;2023-09-19T12:45:12;22.90;99.90
27667;DHT22;15074;50.940;5.282;2023-09-19T12:47:40;23.00;99.90
27667;DHT22;15074;50.940;5.282;2023-09-19T12:50:26;23.10;99.90
27667;DHT22;15074;50.940;5.282;2023-09-19T12:52:55;22.70;99.90
27667;DHT22;15074;50.940;5.282;2023-09-19T12:58:12;21.60;99.90
27667;DHT22;15074;50.940;5.282;2023-09-19T13:00:42;21.50;99.90
27667;DHT22;15074;50.940;5.282;2023-09-19T13:06:00;21.10;99.90
27667;DHT22;15074;50.940;5.282;2023-09-19T13:08:35;20.80;99.90
27667;DHT22;15074;50.940;5.282;2023-09-19T13:11:14;20.90;99.90
27667;DHT22;15074;50.940;5.282;2023-09-19T13:13:49;20.90;99.90
27667;DHT22;15074;50.940;5.282;2023-09-19T13:16:19;21.20;99.90
27667;DHT22;15074;50.940;5.282;2023-09-19T13:18:48;21.40;99.90
27667;DHT22;15074;50.940;5.282;2023-09-19T13:21:17;21.40;99.90
27667;DHT22;15074;50.940;5.282;2023-09-19T13:23:53;21.10;99.90
27667;DHT22;15074;50.940;5.282;2023-09-19T13:26:21;21.20;99.90
27667;DHT22;15074;50.940;5.282;2023-09-19T13:28:48;21.00;99.90
27667;DHT22;15074;50.940;5.282;2023-09-19T13:31:14;21.00;99.90
27667;DHT22;15074;50.940;5.282;2023-09-19T13:33:44;21.30;99.90
27667;DHT22;15074;50.940;5.282;2023-09-19T13:36:11;21.10;99.90
27667;DHT22;15074;50.940;5.282;2023-09-19T13:38:39;21.10;99.90
27667;DHT22;15074;50.940;5.282;2023-09-19T13:41:05;21.00;99.90
27667;DHT22;15074;50.940;5.282;2023-09-19T13:43:32;20.80;99.90
27667;DHT22;15074;50.940;5.282;2023-09-19T13:45:58;20.90;99.90
27667;DHT22;15074;50.940;5.282;2023-09-19T13:48:23;21.20;99.90
27667;DHT22;15074;50.940;5.282;2023-09-19T13:50:49;21.50;99.90
27667;DHT22;15074;50.940;5.282;2023-09-19T13:53:15;21.90;99.90
27667;DHT22;15074;50.940;5.282;2023-09-19T13:55:42;21.80;99.90
27667;DHT22;15074;50.940;5.282;2023-09-19T13:58:08;21.60;99.90
27667;DHT22;15074;50.940;5.282;2023-09-19T14:00:36;21.60;99.90
27667;DHT22;15074;50.940;5.282;2023-09-19T14:03:02;21.10;99.90
27667;DHT22;15074;50.940;5.282;2023-09-19T14:05:29;20.60;99.90
27667;DHT22;15074;50.940;5.282;2023-09-19T14:07:55;20.60;99.90
27667;DHT22;15074;50.940;5.282;2023-09-19T14:10:21;20.40;99.90
27667;DHT22;15074;50.940;5.282;2023-09-19T14:12:47;20.30;99.90
27667;DHT22;15074;50.940;5.282;2023-09-19T14:15:13;20.30;99.90
27667;DHT22;15074;50.940;5.282;2023-09-19T14:17:40;20.20;99.90
27667;DHT22;15074;50.940;5.282;2023-09-19T14:20:10;20.10;99.90
27667;DHT22;15074;50.940;5.282;2023-09-19T14:22:36;20.40;99.90
27667;DHT22;15074;50.940;5.282;2023-09-19T14:25:03;20.20;99.90
27667;DHT22;15074;50.940;5.282;2023-09-19T14:27:29;20.10;99.90
27667;DHT22;15074;50.940;5.282;2023-09-19T14:29:55;20.00;99.90
27667;DHT22;15074;50.940;5.282;2023-09-19T14:32:22;20.00;99.90
27667;DHT22;15074;50.940;5.282;2023-09-19T14:34:48;20.10;99.90
27667;DHT22;15074;50.940;5.282;2023-09-19T14:37:15;20.10;99.90
27667;DHT22;15074;50.940;5.282;2023-09-19T14:39:42;19.90;99.90
27667;DHT22;15074;50.940;5.282;2023-09-19T14:42:11;20.10;99.90
27667;DHT22;15074;50.940;5.282;2023-09-19T14:44:36;20.30;99.90
27667;DHT22;15074;50.940;5.282;2023-09-19T14:47:05;20.40;99.90
27667;DHT22;15074;50.940;5.282;2023-09-19T14:49:35;20.40;99.90
27667;DHT22;15074;50.940;5.282;2023-09-19T14:52:04;20.60;99.90
27667;DHT22;15074;50.940;5.282;2023-09-19T14:54:30;20.60;99.90
27667;DHT22;15074;50.940;5.282;2023-09-19T14:56:56;20.60;99.90
27667;DHT22;15074;50.940;5.282;2023-09-19T14:59:31;20.40;99.90
27667;DHT22;15074;50.940;5.282;2023-09-19T15:01:57;20.30;99.90
27667;DHT22;15074;50.940;5.282;2023-09-19T15:04:24;20.30;99.90
27667;DHT22;15074;50.940;5.282;2023-09-19T15:06:49;20.10;99.90
27667;DHT22;15074;50.940;5.282;2023-09-19T15:09:16;20.10;99.90
27667;DHT22;15074;50.940;5.282;2023-09-19T15:11:44;20.10;99.90
27667;DHT22;15074;50.940;5.282;2023-09-19T15:14:10;20.10;99.90
27667;DHT22;15074;50.940;5.282;2023-09-19T15:16:36;20.10;99.90
27667;DHT22;15074;50.940;5.282;2023-09-19T15:19:01;20.00;99.90
27667;DHT22;15074;50.940;5.282;2023-09-19T15:21:27;20.00;99.90
27667;DHT22;15074;50.940;5.282;2023-09-19T15:23:53;20.10;99.90
27667;DHT22;15074;50.940;5.282;2023-09-19T15:26:18;20.10;99.90
27667;DHT22;15074;50.940;5.282;2023-09-19T15:28:46;20.20;99.90
27667;DHT22;15074;50.940;5.282;2023-09-19T15:31:12;20.10;99.90
27667;DHT22;15074;50.940;5.282;2023-09-19T15:33:38;20.30;99.90
27667;DHT22;15074;50.940;5.282;2023-09-19T15:36:05;20.30;99.90
27667;DHT22;15074;50.940;5.282;2023-09-19T15:38:32;20.40;99.90
27667;DHT22;15074;50.940;5.282;2023-09-19T15:41:19;20.70;99.90
27667;DHT22;15074;50.940;5.282;2023-09-19T15:43:46;20.70;99.90
27667;DHT22;15074;50.940;5.282;2023-09-19T15:46:12;20.50;99.90
27667;DHT22;15074;50.940;5.282;2023-09-19T15:48:39;20.30;99.90
27667;DHT22;15074;50.940;5.282;2023-09-19T15:51:04;20.10;99.90
27667;DHT22;15074;50.940;5.282;2023-09-19T15:56:07;19.80;99.90
27667;DHT22;15074;50.940;5.282;2023-09-19T15:58:32;19.60;99.90
27667;DHT22;15074;50.940;5.282;2023-09-19T16:01:05;19.70;99.90
27667;DHT22;15074;50.940;5.282;2023-09-19T16:03:31;19.70;99.90
27667;DHT22;15074;50.940;5.282;2023-09-19T16:05:57;19.60;99.90
27667;DHT22;15074;50.940;5.282;2023-09-19T16:08:22;19.50;99.90
27667;DHT22;15074;50.940;5.282;2023-09-19T16:10:48;19.50;99.90
27667;DHT22;15074;50.940;5.282;2023-09-19T16:13:14;19.50;99.90
27667;DHT22;15074;50.940;5.282;2023-09-19T16:15:42;19.60;99.90
27667;DHT22;15074;50.940;5.282;2023-09-19T16:18:11;19.50;99.90
27667;DHT22;15074;50.940;5.282;2023-09-19T16:20:36;19.40;99.90
27667;DHT22;15074;50.940;5.282;2023-09-19T16:23:04;19.30;99.90
27667;DHT22;15074;50.940;5.282;2023-09-19T16:25:29;19.30;99.90
27667;DHT22;15074;50.940;5.282;2023-09-19T16:27:55;19.20;99.90
27667;DHT22;15074;50.940;5.282;2023-09-19T16:30:21;19.20;99.90
27667;DHT22;15074;50.940;5.282;2023-09-19T16:32:46;19.10;99.90
27667;DHT22;15074;50.940;5.282;2023-09-19T16:35:12;19.10;99.90
27667;DHT22;15074;50.940;5.282;2023-09-19T16:37:38;19.00;99.90
27667;DHT22;15074;50.940;5.282;2023-09-19T16:40:05;19.00;99.90
27667;DHT22;15074;50.940;5.282;2023-09-19T16:42:32;19.00;99.90